Time;durP1;ratioP1;P1;durP2;ratioP2;P2;SDS_P1;SDS_P2;PMS_P1;PMS_P2;Temp;Humidity;BMP_temperature;BMP_pressure;BME280_temperature;BME280_humidity;BME280_pressure;Samples;Min_cycle;Max_cycle;Signal;HPM_P1;HPM_P2
2022/07/14 00:00:10;;;;;;;;;3.00;3.00;;;;;25.31;35.36;101130.72;146609;623;46018;-78
2022/07/14 00:03:02;;;;;;;;;2.00;2.00;;;;;25.27;35.46;101128.09;146606;657;46018;-77
2022/07/14 00:05:54;;;;;;;;;1.75;1.75;;;;;25.26;35.84;101126.31;146609;575;46008;-79
2022/07/14 00:08:47;;;;;;;;;1.50;1.50;;;;;25.24;36.23;101128.13;146606;647;46018;-82
2022/07/14 00:11:40;;;;;;;;;2.00;2.00;;;;;25.23;36.27;101129.84;146607;668;46018;-79
2022/07/14 00:14:32;;;;;;;;;4.75;3.75;;;;;25.23;36.17;101134.28;146604;640;46012;-78
2022/07/14 00:17:24;;;;;;;;;3.00;3.00;;;;;25.22;36.63;101125.44;146608;642;46009;-75
2022/07/14 00:20:16;;;;;;;;;3.00;3.00;;;;;25.20;36.50;101129.88;146604;621;47010;-76
2022/07/14 00:23:08;;;;;;;;;5.00;3.00;;;;;25.21;36.73;101130.78;146607;690;46008;-74
2022/07/14 00:26:00;;;;;;;;;3.25;3.00;;;;;25.21;36.75;101125.47;146607;654;46012;-75
2022/07/14 00:28:53;;;;;;;;;3.50;3.50;;;;;25.21;36.86;101122.81;146609;665;46008;-80
2022/07/14 00:31:44;;;;;;;;;3.00;3.00;;;;;25.22;36.84;101130.75;146605;592;46019;-80
2022/07/14 00:34:37;;;;;;;;;3.00;3.00;;;;;25.22;37.58;101132.53;146608;609;46027;-87
2022/07/14 00:37:29;;;;;;;;;3.50;3.50;;;;;25.21;37.58;101128.13;146603;612;46018;-81
2022/07/14 00:40:22;;;;;;;;;2.00;2.00;;;;;25.22;37.50;101127.22;146607;564;46019;-76
2022/07/14 00:43:13;;;;;;;;;3.00;3.00;;;;;25.19;37.65;101130.75;146606;655;46916;-79
2022/07/14 00:46:06;;;;;;;;;5.00;3.75;;;;;25.17;37.41;101127.25;146603;636;46019;-86
2022/07/14 00:48:57;;;;;;;;;2.00;2.00;;;;;25.15;37.63;101128.13;146605;637;46018;-86
2022/07/14 00:51:50;;;;;;;;;2.00;2.00;;;;;25.13;37.74;101125.47;146608;577;46008;-89
2022/07/14 00:54:41;;;;;;;;;2.00;2.00;;;;;25.09;37.81;101121.91;146608;566;46010;-76
2022/07/14 00:57:34;;;;;;;;;3.00;3.00;;;;;25.09;38.12;101129.00;146609;578;46010;-82
2022/07/14 01:00:26;;;;;;;;;2.50;2.00;;;;;25.05;38.22;101130.78;146607;720;46020;-84
2022/07/14 01:03:19;;;;;;;;;3.00;3.00;;;;;25.03;38.11;101127.22;146608;663;46008;-76
2022/07/14 01:06:10;;;;;;;;;2.00;2.00;;;;;25.01;38.34;101126.34;146605;573;46916;-79
2022/07/14 01:09:04;;;;;;;;;4.00;4.00;;;;;24.99;38.33;101128.13;146610;683;46009;-76
2022/07/14 01:11:56;;;;;;;;;2.75;2.75;;;;;24.98;38.53;101136.06;146605;566;47012;-69
2022/07/14 01:14:48;;;;;;;;;3.25;3.25;;;;;24.95;38.16;101131.66;146610;657;46008;-73
2022/07/14 01:17:40;;;;;;;;;3.00;3.00;;;;;24.92;38.68;101126.34;146607;637;45019;-74
2022/07/14 01:20:32;;;;;;;;;3.67;3.00;;;;;24.89;38.62;101129.91;146612;593;46008;-68
2022/07/14 01:23:24;;;;;;;;;3.25;3.00;;;;;24.91;38.52;101127.25;146607;553;46019;-70
2022/07/14 01:26:16;;;;;;;;;3.75;3.75;;;;;24.92;38.34;101128.13;146608;563;46018;-70
2022/07/14 01:29:08;;;;;;;;;5.00;5.00;;;;;24.92;37.71;101125.47;146606;635;46018;-70
2022/07/14 01:32:00;;;;;;;;;5.50;4.25;;;;;24.92;37.87;101118.37;146608;636;46018;-70
2022/07/14 01:34:52;;;;;;;;;4.00;4.00;;;;;24.95;38.00;101122.81;146605;602;46018;-71
2022/07/14 01:37:48;;;;;;;;;3.00;3.00;;;;;24.96;37.89;101122.84;146611;565;46008;-70
2022/07/14 01:40:39;;;;;;;;;4.00;4.00;;;;;24.96;38.19;101128.13;146609;600;46010;-70
2022/07/14 01:43:35;;;;;;;;;3.75;3.00;;;;;24.98;38.27;101117.50;146610;580;46008;-71
2022/07/14 01:46:27;;;;;;;;;5.00;5.00;;;;;24.98;38.05;101128.13;146607;579;46010;-71
2022/07/14 01:49:19;;;;;;;;;3.75;3.00;;;;;24.98;38.16;101120.16;146609;652;46008;-73
2022/07/14 01:52:11;;;;;;;;;4.25;4.00;;;;;24.98;37.97;101115.72;146607;723;46018;-72
2022/07/14 01:55:04;;;;;;;;;4.75;4.00;;;;;25.00;38.05;101121.03;146607;648;46018;-73
2022/07/14 01:57:56;;;;;;;;;3.75;3.00;;;;;25.00;37.88;101121.03;146609;575;46010;-72
2022/07/14 02:01:39;;;;;;;;;3.67;3.00;;;;;24.99;38.12;101122.81;146608;566;46010;-72
2022/07/14 02:04:00;;;;;;;;;4.50;4.50;;;;;24.99;38.00;101127.25;146604;565;46914;-73
2022/07/14 02:06:56;;;;;;;;;6.67;4.33;;;;;24.98;38.29;101120.16;146612;570;46008;-70
2022/07/14 02:12:58;;;;;;;;;6.00;4.50;;;;;24.96;38.62;101135.22;146605;595;46020;-70
2022/07/14 02:15:50;;;;;;;;;4.25;4.00;;;;;24.93;38.77;101129.91;146607;685;45019;-70
2022/07/14 02:18:43;;;;;;;;;4.00;3.25;;;;;24.93;38.23;101137.88;146631;681;45008;-72
2022/07/14 02:21:35;;;;;;;;;5.00;5.00;;;;;24.92;38.79;101144.03;146629;573;45018;-74
2022/07/14 02:24:28;;;;;;;;;4.25;4.00;;;;;24.93;39.01;101143.19;146632;711;45010;-76
2022/07/14 02:27:20;;;;;;;;;4.00;4.00;;;;;24.93;38.75;101148.47;146626;565;45018;-75
2022/07/14 02:30:13;;;;;;;;;3.00;3.00;;;;;24.91;39.17;101145.81;146629;691;45915;-76
2022/07/14 02:33:05;;;;;;;;;4.00;4.00;;;;;24.92;38.55;101154.66;146630;731;45012;-72
2022/07/14 02:35:57;;;;;;;;;3.50;3.50;;;;;24.91;38.96;101151.13;146628;563;45018;-75
2022/07/14 02:38:49;;;;;;;;;4.25;4.00;;;;;24.91;39.10;101161.72;146629;668;45010;-76
2022/07/14 02:41:41;;;;;;;;;4.00;4.00;;;;;24.92;38.65;101155.53;146628;648;45018;-74
2022/07/14 02:44:33;;;;;;;;;2.75;2.75;;;;;24.91;39.09;101163.50;146626;578;45937;-73
2022/07/14 02:47:25;;;;;;;;;5.00;5.00;;;;;24.89;38.82;101160.84;146628;653;45018;-77
2022/07/14 02:50:17;;;;;;;;;3.75;3.75;;;;;24.89;38.69;101168.78;146628;649;45018;-80
2022/07/14 02:53:10;;;;;;;;;4.00;3.00;;;;;24.87;38.62;101168.81;146627;576;45019;-84
2022/07/14 02:56:02;;;;;;;;;6.00;6.00;;;;;24.87;39.03;101175.87;146628;645;45012;-85
2022/07/14 02:58:54;;;;;;;;;6.00;4.25;;;;;24.86;38.70;101185.63;146626;702;45018;-81
2022/07/14 03:01:46;;;;;;;;;5.75;5.50;;;;;24.85;38.71;101183.84;146627;626;45018;-85
2022/07/14 03:04:39;;;;;;;;;5.75;4.25;;;;;24.82;38.73;101186.47;146629;571;45010;-81
2022/07/14 03:07:31;;;;;;;;;5.00;5.00;;;;;24.83;38.93;101184.75;146628;603;45018;-76
2022/07/14 03:10:23;;;;;;;;;5.00;5.00;;;;;24.81;38.69;101195.34;146630;583;45018;-82
2022/07/14 03:13:15;;;;;;;;;5.75;5.75;;;;;24.81;39.23;101194.47;146627;673;45018;-80
2022/07/14 03:16:09;;;;;;;;;4.00;4.00;;;;;24.81;38.89;101205.94;146628;575;46010;-80
2022/07/14 03:19:01;;;;;;;;;4.00;4.00;;;;;24.80;39.00;101209.50;146607;563;46010;-81
2022/07/14 03:21:53;;;;;;;;;4.25;3.50;;;;;24.80;39.33;101209.50;146607;654;46019;-79
2022/07/14 03:24:45;;;;;;;;;5.00;5.00;;;;;24.80;39.48;101213.91;146608;621;46018;-80
2022/07/14 03:27:38;;;;;;;;;7.00;6.00;;;;;24.78;39.67;101213.91;146603;728;46914;-75
2022/07/14 03:30:30;;;;;;;;;4.00;4.00;;;;;24.77;38.74;101224.53;146606;564;46018;-83
2022/07/14 03:33:23;;;;;;;;;6.50;5.50;;;;;24.76;39.95;101217.44;146607;570;46018;-82
2022/07/14 03:36:15;;;;;;;;;6.25;5.00;;;;;24.77;40.33;101217.44;146604;591;46012;-85
2022/07/14 03:39:07;;;;;;;;;5.25;5.00;;;;;24.75;40.58;101218.31;146610;570;46008;-85
2022/07/14 03:41:59;;;;;;;;;7.25;6.00;;;;;24.74;40.24;101228.06;146606;696;46018;-84
2022/07/14 03:44:52;;;;;;;;;6.00;6.00;;;;;24.76;40.64;101226.25;146607;612;47008;-82
2022/07/14 03:47:44;;;;;;;;;5.75;5.75;;;;;24.74;41.00;101224.53;146607;581;46010;-81
2022/07/14 03:50:37;;;;;;;;;5.00;5.00;;;;;24.73;41.50;101233.34;146607;662;46019;-78
2022/07/14 03:53:30;;;;;;;;;5.75;5.50;;;;;24.69;40.97;101226.28;146605;570;46018;-77
2022/07/14 03:56:22;;;;;;;;;5.00;5.00;;;;;23.91;41.08;101099.78;146609;564;46008;-81
2022/07/14 03:59:14;;;;;;;;;6.75;5.00;;;;;24.43;41.38;101206.78;146607;589;46010;-79
2022/07/14 04:02:06;;;;;;;;;7.00;6.00;;;;;24.63;41.39;101235.09;146607;651;46029;-85
2022/07/14 04:04:58;;;;;;;;;6.00;6.00;;;;;24.60;41.68;101229.78;146604;622;46019;-83
2022/07/14 04:07:51;;;;;;;;;6.25;6.25;;;;;24.60;41.72;101229.78;146607;630;46018;-79
2022/07/14 04:10:43;;;;;;;;;6.00;5.00;;;;;24.56;42.36;101239.50;146601;669;48916;-86
2022/07/14 04:13:35;;;;;;;;;7.25;6.50;;;;;24.53;42.08;101228.91;146607;571;47008;-70
2022/07/14 04:16:27;;;;;;;;;6.75;5.00;;;;;24.54;41.85;101235.94;146607;703;46018;-72
2022/07/14 04:19:19;;;;;;;;;5.50;5.50;;;;;24.56;42.29;101242.16;146607;694;46018;-77
2022/07/14 04:22:11;;;;;;;;;6.00;5.00;;;;;24.63;42.58;101235.97;146604;576;46917;-77
2022/07/14 04:25:05;;;;;;;;;5.25;4.50;;;;;24.73;42.65;101238.62;146609;628;46018;-79
2022/07/14 04:27:57;;;;;;;;;5.50;5.00;;;;;24.84;42.08;101237.78;146607;567;46010;-78
2022/07/14 04:30:49;;;;;;;;;6.00;6.00;;;;;24.96;41.67;101244.84;146609;606;46018;-78
2022/07/14 04:33:41;;;;;;;;;4.00;4.00;;;;;25.06;42.25;101249.28;146607;602;46018;-78
2022/07/14 04:36:33;;;;;;;;;5.25;5.25;;;;;25.15;41.76;101256.38;146609;600;46008;-79
2022/07/14 04:39:25;;;;;;;;;6.00;4.75;;;;;25.24;41.54;101256.38;146607;729;46018;-77
2022/07/14 04:42:18;;;;;;;;;6.75;6.00;;;;;25.34;42.28;101252.84;146607;621;46026;-77
2022/07/14 04:45:11;;;;;;;;;4.00;4.00;;;;;25.45;41.40;101255.50;146605;622;46029;-78
2022/07/14 04:48:03;;;;;;;;;5.50;5.50;;;;;25.54;41.35;101255.44;146607;575;46018;-77
2022/07/14 04:54:05;;;;;;;;;5.50;5.50;;;;;25.72;40.79;101249.22;146608;633;46010;-76
2022/07/14 04:56:58;;;;;;;;;6.25;5.50;;;;;25.84;40.76;101263.38;146607;579;46018;-75
2022/07/14 04:59:50;;;;;;;;;6.00;6.00;;;;;25.93;40.81;101248.31;146608;570;46008;-75
2022/07/14 05:02:42;;;;;;;;;5.00;5.00;;;;;26.05;40.32;101255.34;146606;659;46916;-74
2022/07/14 05:05:35;;;;;;;;;6.00;6.00;;;;;26.18;40.21;101253.50;146609;633;46008;-70
2022/07/14 05:08:26;;;;;;;;;4.00;4.00;;;;;26.27;40.20;101248.16;146604;574;46018;-71
2022/07/14 05:11:19;;;;;;;;;5.75;5.75;;;;;26.33;40.15;101257.88;146605;666;47008;-71
2022/07/14 05:14:11;;;;;;;;;6.00;6.00;;;;;26.42;39.52;101250.72;146603;717;46019;-70
2022/07/14 05:17:04;;;;;;;;;5.50;5.50;;;;;26.57;39.52;101251.53;146609;603;46018;-73
2022/07/14 05:19:56;;;;;;;;;4.25;4.25;;;;;26.72;39.73;101257.66;146606;716;46018;-72
2022/07/14 05:22:48;;;;;;;;;4.75;4.75;;;;;26.91;39.30;101261.06;146609;712;45018;-76
2022/07/14 05:25:40;;;;;;;;;5.25;5.00;;;;;27.05;39.24;101260.09;146606;568;46010;-77
2022/07/14 05:28:32;;;;;;;;;5.75;4.75;;;;;27.17;38.07;101257.34;146608;621;46009;-78
2022/07/14 05:31:24;;;;;;;;;5.00;5.00;;;;;27.27;38.08;101256.38;146604;595;47012;-78
2022/07/14 05:34:17;;;;;;;;;6.75;6.00;;;;;27.39;37.58;101266.91;146607;571;46018;-76
2022/07/14 05:37:09;;;;;;;;;5.00;5.00;;;;;27.52;37.85;101262.34;146607;569;46012;-81
2022/07/14 05:40:01;;;;;;;;;6.00;6.00;;;;;27.69;38.14;101267.47;146607;579;46010;-80
2022/07/14 05:42:53;;;;;;;;;5.67;5.00;;;;;27.82;38.23;101268.25;146605;612;46917;-80
2022/07/14 05:45:46;;;;;;;;;5.00;4.75;;;;;27.96;37.17;101268.97;146608;610;46018;-80
2022/07/14 05:48:38;;;;;;;;;5.00;5.00;;;;;28.06;37.01;101264.41;146608;563;46026;-82
2022/07/14 05:51:30;;;;;;;;;5.33;5.33;;;;;28.16;36.89;101271.37;146609;601;46008;-81
2022/07/14 05:54:22;;;;;;;;;5.00;5.00;;;;;28.22;36.71;101267.75;146606;604;46018;-78
2022/07/14 05:57:15;;;;;;;;;4.75;4.00;;;;;28.27;37.04;101269.47;146609;670;46008;-78
2022/07/14 06:00:08;;;;;;;;;4.67;4.67;;;;;28.32;36.06;101266.75;146608;703;46018;-77
2022/07/14 06:03:00;;;;;;;;;5.67;5.00;;;;;28.41;36.44;101266.66;146607;583;46915;-77
2022/07/14 06:05:53;;;;;;;;;4.25;4.25;;;;;28.55;36.10;101267.34;146606;658;46019;-78
2022/07/14 06:08:45;;;;;;;;;5.00;5.00;;;;;28.68;36.05;101269.81;146605;650;46018;-78
2022/07/14 06:11:39;;;;;;;;;5.00;5.00;;;;;28.78;35.93;101269.69;146605;672;46032;-78
2022/07/14 06:14:31;;;;;;;;;5.00;5.00;;;;;28.83;36.10;101261.59;146607;630;46008;-78
2022/07/14 06:17:24;;;;;;;;;4.50;4.25;;;;;28.92;36.07;101264.09;146607;571;46012;-77
2022/07/14 06:20:16;;;;;;;;;6.33;5.00;;;;;28.99;35.12;101265.75;146611;609;46008;-78
2022/07/14 06:23:09;;;;;;;;;5.00;5.00;;;;;29.06;35.59;101257.69;146604;579;46031;-71
2022/07/14 06:26:01;;;;;;;;;6.50;5.50;;;;;29.14;35.91;101258.44;146607;700;46010;-83
2022/07/14 06:28:53;;;;;;;;;6.00;6.00;;;;;29.20;35.35;101263.69;146608;590;45019;-74
2022/07/14 06:31:45;;;;;;;;;5.00;4.75;;;;;29.26;34.99;101257.37;146606;570;46025;-84
2022/07/14 06:34:37;;;;;;;;;5.00;4.00;;;;;29.25;35.18;101253.78;146604;611;46019;-84
2022/07/14 06:37:29;;;;;;;;;6.00;5.67;;;;;29.35;34.86;101252.75;146607;625;47008;-82
2022/07/14 06:40:21;;;;;;;;;3.25;3.25;;;;;29.42;34.68;101243.69;146609;581;46010;-85
2022/07/14 06:43:14;;;;;;;;;5.25;4.50;;;;;29.41;34.77;101243.72;146609;618;46008;-83
2022/07/14 06:46:07;;;;;;;;;4.00;3.00;;;;;29.27;34.38;101243.97;146606;651;46010;-78
2022/07/14 06:48:59;;;;;;;;;5.00;5.00;;;;;29.05;33.95;101242.59;146607;694;46019;-78
2022/07/14 06:51:51;;;;;;;;;4.50;4.50;;;;;28.87;34.94;101238.41;146605;605;46018;-79
2022/07/14 06:54:43;;;;;;;;;5.67;5.33;;;;;28.87;34.90;101238.41;146610;601;46008;-79
2022/07/14 06:57:35;;;;;;;;;4.67;4.00;;;;;29.00;34.26;101231.94;146608;686;46030;-79
2022/07/14 07:00:27;;;;;;;;;4.75;4.75;;;;;29.15;34.47;101230.84;146607;597;46010;-77
2022/07/14 07:03:19;;;;;;;;;6.50;5.50;;;;;29.26;33.92;101228.88;146606;580;46011;-78
2022/07/14 07:09:23;;;;;;;;;5.00;5.00;;;;;29.47;34.30;101222.22;146605;649;46914;-79
2022/07/14 07:12:15;;;;;;;;;4.00;4.00;;;;;29.58;33.64;101217.56;146607;657;46010;-78
2022/07/14 07:15:08;;;;;;;;;5.67;5.67;;;;;29.64;34.19;101213.91;146606;671;46018;-79
2022/07/14 07:18:01;;;;;;;;;5.25;3.75;;;;;29.77;33.70;101218.09;146608;550;47008;-79
2022/07/14 07:20:53;;;;;;;;;6.00;6.00;;;;;29.89;33.54;101207.16;146606;632;46012;-78
2022/07/14 07:23:46;;;;;;;;;5.67;4.67;;;;;30.01;32.64;101200.66;146611;596;46008;-78
2022/07/14 07:26:40;;;;;;;;;5.00;5.00;;;;;30.06;32.88;101197.88;146605;678;46012;-78
2022/07/14 07:29:32;;;;;;;;;4.25;4.25;;;;;30.21;33.07;101202.03;146607;695;46018;-77
2022/07/14 07:32:24;;;;;;;;;6.00;6.00;;;;;30.33;32.37;101199.97;146607;565;46010;-79
2022/07/14 07:35:17;;;;;;;;;5.00;5.00;;;;;30.38;32.18;101198.06;146605;603;46019;-79
2022/07/14 07:38:09;;;;;;;;;7.00;5.00;;;;;30.48;32.52;101193.37;146607;581;46010;-77
2022/07/14 07:41:02;;;;;;;;;5.00;5.00;;;;;30.63;32.30;101192.16;146605;576;46018;-76
2022/07/14 07:43:54;;;;;;;;;6.00;4.00;;;;;30.69;31.67;101193.78;146606;591;46018;-78
2022/07/14 07:46:46;;;;;;;;;4.25;4.25;;;;;30.67;30.71;101188.47;146609;716;46018;-78
2022/07/14 07:49:38;;;;;;;;;6.33;6.00;;;;;30.70;31.74;101191.06;146607;621;46018;-77
2022/07/14 07:52:30;;;;;;;;;4.67;4.67;;;;;30.83;31.35;101191.66;146609;587;46008;-77
2022/07/14 07:55:23;;;;;;;;;4.00;2.67;;;;;30.91;30.76;101191.50;146607;644;46018;-77
2022/07/14 07:58:15;;;;;;;;;5.00;4.67;;;;;30.99;31.08;101190.34;146612;601;45018;-78
2022/07/14 08:01:08;;;;;;;;;2.50;2.25;;;;;31.05;29.82;101181.28;146606;618;46010;-78
2022/07/14 08:04:01;;;;;;;;;4.67;4.67;;;;;31.09;30.52;101193.66;146606;627;46019;-79
2022/07/14 08:06:53;;;;;;;;;4.33;4.33;;;;;31.15;30.29;101179.22;146604;658;46018;-77
2022/07/14 08:09:45;;;;;;;;;4.33;3.33;;;;;31.19;30.72;101176.44;146610;621;46008;-79
2022/07/14 08:12:38;;;;;;;;;5.00;4.50;;;;;31.27;30.33;101185.13;146605;674;46018;-77
2022/07/14 08:15:30;;;;;;;;;4.00;4.00;;;;;31.34;29.72;101179.63;146608;601;46018;-79
2022/07/14 08:18:22;;;;;;;;;4.00;4.00;;;;;31.32;29.33;101189.50;146605;676;46019;-77
2022/07/14 08:21:14;;;;;;;;;6.00;5.00;;;;;31.27;29.95;101181.56;146609;617;46008;-77
2022/07/14 08:24:07;;;;;;;;;6.00;5.00;;;;;31.31;30.68;101180.59;146603;581;46018;-77
2022/07/14 08:27:00;;;;;;;;;5.00;4.00;;;;;31.42;30.65;101183.00;146609;618;46008;-82
2022/07/14 08:29:52;;;;;;;;;3.75;3.00;;;;;31.50;30.44;101181.84;146606;607;46018;-78
2022/07/14 08:32:47;;;;;;;;;3.67;3.67;;;;;30.88;28.72;101060.37;146608;678;46018;-79
2022/07/14 08:35:38;;;;;;;;;4.33;4.33;;;;;31.51;29.53;101183.59;146607;577;46018;-78
2022/07/14 08:38:31;;;;;;;;;4.00;4.00;;;;;31.49;28.15;101165.81;146611;719;46018;-79
2022/07/14 08:41:22;;;;;;;;;4.00;4.00;;;;;31.47;29.51;101170.34;146607;630;46018;-78
2022/07/14 08:44:16;;;;;;;;;4.25;4.25;;;;;31.48;29.07;101174.78;146608;617;46008;-78
2022/07/14 08:47:09;;;;;;;;;5.50;4.25;;;;;31.57;29.96;101177.19;146605;583;46916;-77
2022/07/14 08:50:01;;;;;;;;;2.25;2.25;;;;;31.74;30.44;101166.84;146610;655;46008;-77
2022/07/14 08:52:54;;;;;;;;;4.25;4.25;;;;;31.98;29.51;101164.38;146603;651;47012;-76
2022/07/14 08:55:47;;;;;;;;;5.00;4.00;;;;;32.12;29.53;101170.22;146608;571;46018;-77
2022/07/14 08:58:39;;;;;;;;;2.50;2.50;;;;;32.21;29.32;101163.66;146606;606;46010;-77
2022/07/14 09:01:32;;;;;;;;;5.00;5.00;;;;;32.39;28.71;101171.12;146608;595;46019;-78
2022/07/14 09:04:24;;;;;;;;;4.50;4.50;;;;;32.56;29.37;101169.75;146605;704;46917;-76
2022/07/14 09:07:32;;;;;;;;;5.00;5.00;;;;;32.66;28.95;101169.37;146605;687;47010;-76
2022/07/14 09:10:29;;;;;;;;;4.67;4.67;;;;;32.70;28.07;101169.28;146604;615;46019;-78
2022/07/14 09:13:24;;;;;;;;;6.00;5.00;;;;;32.64;29.00;101163.16;146610;587;46010;-78
2022/07/14 09:16:27;;;;;;;;;3.25;3.25;;;;;32.57;29.84;101164.31;146607;578;46010;-82
2022/07/14 09:19:21;;;;;;;;;3.00;3.00;;;;;32.44;28.92;101168.34;146609;574;46008;-78
2022/07/14 09:22:14;;;;;;;;;3.33;3.00;;;;;32.44;29.00;101168.34;146604;565;46018;-78
2022/07/14 09:25:10;;;;;;;;;5.33;4.00;;;;;32.41;28.55;101163.91;146609;613;46018;-76
2022/07/14 09:28:03;;;;;;;;;4.00;3.00;;;;;32.33;29.96;101154.34;146607;565;46010;-78
2022/07/14 09:30:56;;;;;;;;;4.00;4.00;;;;;32.33;28.57;101140.94;146609;653;46008;-77
2022/07/14 09:33:48;;;;;;;;;4.00;4.00;;;;;32.24;28.90;101147.47;146604;633;46029;-77
2022/07/14 09:36:41;;;;;;;;;4.00;4.00;;;;;32.22;29.30;101148.47;146610;676;46008;-77
2022/07/14 09:39:33;;;;;;;;;6.25;5.25;;;;;32.12;29.69;101151.44;146605;594;46916;-78
2022/07/14 09:42:45;;;;;;;;;5.00;4.50;;;;;31.94;29.63;101150.19;146607;629;46008;-77
2022/07/14 09:45:40;;;;;;;;;5.67;4.33;;;;;31.74;29.77;101149.88;146606;637;46018;-76
2022/07/14 09:48:32;;;;;;;;;3.67;3.67;;;;;31.67;30.40;101154.56;146611;641;45019;-77
2022/07/14 09:51:24;;;;;;;;;5.00;4.00;;;;;31.76;29.88;101142.69;146607;623;46018;-77
2022/07/14 09:54:17;;;;;;;;;4.00;3.67;;;;;31.87;30.06;101145.94;146608;586;46019;-78
2022/07/14 09:57:42;;;;;;;;;5.67;4.67;;;;;31.28;31.01;101019.91;146607;617;46916;-78
2022/07/14 10:00:35;;;;;;;;;4.67;4.00;;;;;31.99;28.56;101152.72;146608;591;46019;-78
2022/07/14 10:03:29;;;;;;;;;4.00;4.00;;;;;31.99;28.46;101144.69;146604;566;46019;-82
2022/07/14 10:06:22;;;;;;;;;4.50;4.50;;;;;32.18;30.12;101139.59;146607;578;46018;-78
2022/07/14 10:09:15;;;;;;;;;5.75;4.50;;;;;32.40;29.31;101140.69;146604;577;46031;-77
2022/07/14 10:12:09;;;;;;;;;3.67;3.67;;;;;32.53;28.04;101140.31;146610;613;45018;-78
2022/07/14 10:15:03;;;;;;;;;2.00;2.00;;;;;32.64;28.02;101147.06;146607;626;46010;-78
2022/07/14 10:17:56;;;;;;;;;2.67;2.67;;;;;32.78;28.66;101145.72;146608;607;47008;-77
2022/07/14 10:20:54;;;;;;;;;3.00;3.00;;;;;32.98;29.03;101142.37;146605;605;46018;-79
2022/07/14 10:23:47;;;;;;;;;4.33;4.00;;;;;33.19;28.48;101135.34;146608;565;46010;-77
2022/07/14 10:26:40;;;;;;;;;2.67;2.67;;;;;33.31;26.89;101145.66;146604;623;46018;-78
2022/07/14 10:29:33;;;;;;;;;3.00;3.00;;;;;33.15;27.71;101145.34;146607;624;46008;-77
2022/07/14 10:32:59;;;;;;;;;4.00;4.00;;;;;32.95;28.25;101137.94;146606;611;46019;-76
2022/07/14 10:36:25;;;;;;;;;2.67;2.67;;;;;32.93;26.63;101142.50;146610;569;46008;-77
2022/07/14 10:39:46;;;;;;;;;4.33;3.00;;;;;32.94;27.96;101135.34;146607;589;46010;-78
2022/07/14 10:43:11;;;;;;;;;2.67;2.67;;;;;32.17;28.97;100983.13;146610;598;46008;-78
2022/07/14 10:46:03;;;;;;;;;3.67;3.67;;;;;33.29;26.97;101132.25;146607;606;46012;-77
2022/07/14 10:48:55;;;;;;;;;2.67;2.67;;;;;33.45;26.59;101132.56;146608;612;46008;-78
2022/07/14 10:51:52;;;;;;;;;3.00;3.00;;;;;33.50;27.43;101127.06;146607;584;46018;-78
2022/07/14 10:54:44;;;;;;;;;3.00;3.00;;;;;33.56;27.00;101130.41;146607;570;46019;-77
2022/07/14 10:57:36;;;;;;;;;4.00;4.00;;;;;33.68;26.42;101130.88;146606;604;46010;-78
2022/07/14 11:01:09;;;;;;;;;2.00;2.00;;;;;33.13;28.77;101012.00;146608;643;46008;-78
2022/07/14 11:04:01;;;;;;;;;3.67;2.67;;;;;33.84;27.37;101123.97;146606;630;46018;-78
2022/07/14 11:07:31;;;;;;;;;1.33;1.33;;;;;33.26;26.58;101005.19;146609;612;46008;-79
2022/07/14 11:11:04;;;;;;;;;2.00;2.00;;;;;32.92;27.00;100933.91;146608;595;46018;-76
2022/07/14 11:14:28;;;;;;;;;2.67;2.67;;;;;32.83;26.60;100929.78;146609;575;47008;-77
2022/07/14 11:17:42;;;;;;;;;3.00;2.00;;;;;33.91;28.81;101108.44;146608;641;46012;-76
2022/07/14 11:21:29;;;;;;;;;3.00;3.00;;;;;32.73;28.32;100911.41;146610;587;45018;-76
2022/07/14 11:24:21;;;;;;;;;3.50;3.25;;;;;34.05;26.86;101094.44;146606;664;46010;-76
2022/07/14 11:27:48;;;;;;;;;3.00;3.00;;;;;33.14;27.10;100938.50;146607;569;46018;-78
2022/07/14 11:30:40;;;;;;;;;4.33;4.33;;;;;34.10;26.29;101092.47;146607;665;46010;-77
2022/07/14 11:33:36;;;;;;;;;2.00;2.00;;;;;34.13;26.32;101103.09;146607;573;46008;-78
2022/07/14 11:36:29;;;;;;;;;3.00;3.00;;;;;34.13;26.26;101095.03;146608;674;45018;-78
2022/07/14 11:39:25;;;;;;;;;3.00;3.00;;;;;34.16;26.29;101102.97;146610;569;46008;-77
2022/07/14 11:42:19;;;;;;;;;1.00;1.00;;;;;34.10;23.82;101074.50;146606;590;46018;-77
2022/07/14 11:45:12;;;;;;;;;6.25;5.25;;;;;33.95;25.67;101075.97;146609;579;46019;-77
2022/07/14 11:48:04;;;;;;;;;2.00;2.00;;;;;33.91;25.51;101078.84;146606;625;46019;-77
2022/07/14 11:51:04;;;;;;;;;3.00;3.00;;;;;33.83;25.35;101076.44;146606;569;46018;-78
2022/07/14 11:54:06;;;;;;;;;2.00;2.00;;;;;33.85;26.63;101081.78;146605;616;46916;-77
2022/07/14 11:57:06;;;;;;;;;3.00;3.00;;;;;33.95;27.55;101086.72;146608;670;46018;-78
2022/07/14 12:00:12;;;;;;;;;2.00;2.00;;;;;34.02;27.08;101082.91;146606;648;46023;-78
2022/07/14 12:03:04;;;;;;;;;3.00;3.00;;;;;34.08;26.19;101075.50;146610;576;46008;-78
2022/07/14 12:05:58;;;;;;;;;4.75;3.75;;;;;34.08;26.20;101079.06;146607;580;46018;-77
2022/07/14 12:08:52;;;;;;;;;4.33;3.67;;;;;34.15;26.30;101069.81;146608;611;46018;-77
2022/07/14 12:11:54;;;;;;;;;2.75;2.75;;;;;34.22;25.95;101073.12;146606;606;46012;-78
2022/07/14 12:14:55;;;;;;;;;3.00;3.00;;;;;34.17;27.03;101070.59;146609;570;46009;-78
2022/07/14 12:17:55;;;;;;;;;3.50;2.50;;;;;34.13;26.43;101071.69;146606;691;46018;-78
2022/07/14 12:20:50;;;;;;;;;1.75;1.75;;;;;34.12;25.27;101061.00;146609;703;46008;-78
2022/07/14 12:24:01;;;;;;;;;5.50;3.75;;;;;34.02;26.86;101058.69;146605;693;46019;-77
2022/07/14 12:26:54;;;;;;;;;1.33;1.33;;;;;33.97;25.71;101055.25;146609;631;47008;-77
2022/07/14 12:29:53;;;;;;;;;3.75;3.50;;;;;33.95;26.74;101049.06;146605;680;46917;-77
2022/07/14 12:32:45;;;;;;;;;2.67;2.67;;;;;33.94;26.15;101044.63;146607;566;47008;-78
2022/07/14 12:35:38;;;;;;;;;2.33;2.33;;;;;33.94;26.27;101033.87;146609;574;45018;-77
2022/07/14 12:38:32;;;;;;;;;2.00;2.00;;;;;33.99;25.71;101028.31;146610;582;46010;-78
2022/07/14 12:41:27;;;;;;;;;3.67;3.00;;;;;34.00;26.28;101016.59;146606;664;46032;-77
2022/07/14 12:44:20;;;;;;;;;4.75;3.75;;;;;34.00;26.26;101020.16;146609;614;46019;-78
2022/07/14 12:47:15;;;;;;;;;3.00;3.00;;;;;34.00;25.83;101017.47;146608;622;46010;-77
2022/07/14 12:50:22;;;;;;;;;2.67;2.67;;;;;34.01;26.68;101010.25;146608;681;46018;-78
2022/07/14 12:53:16;;;;;;;;;2.00;2.00;;;;;34.03;25.40;101011.13;146606;618;46019;-77
2022/07/14 12:56:09;;;;;;;;;3.00;3.00;;;;;34.02;26.11;101007.56;146608;624;47008;-77
2022/07/14 12:59:02;;;;;;;;;1.00;1.00;;;;;34.05;25.73;101008.34;146606;566;46916;-77
2022/07/14 13:02:02;;;;;;;;;0.67;0.67;;;;;34.05;26.41;101005.66;146607;634;46018;-77
2022/07/14 13:05:03;;;;;;;;;2.00;2.00;;;;;34.09;25.81;101000.09;146607;591;46013;-78
2022/07/14 13:07:55;;;;;;;;;3.00;2.50;;;;;34.11;25.71;100995.50;146608;711;46008;-78
2022/07/14 13:11:01;;;;;;;;;1.67;1.67;;;;;34.08;27.22;100992.06;146605;676;46018;-76
2022/07/14 13:13:54;;;;;;;;;3.00;3.00;;;;;34.03;26.17;100994.97;146607;669;46019;-79
2022/07/14 13:16:50;;;;;;;;;2.00;2.00;;;;;33.99;26.60;100994.19;146608;666;46010;-78
2022/07/14 13:19:42;;;;;;;;;2.00;2.00;;;;;33.96;24.05;100988.94;146607;577;46018;-76
2022/07/14 13:22:34;;;;;;;;;1.67;1.67;;;;;33.96;25.68;100988.94;146608;578;46030;-78
2022/07/14 13:25:26;;;;;;;;;3.00;3.00;;;;;33.96;25.63;100978.19;146611;612;46008;-78
2022/07/14 13:28:30;;;;;;;;;2.00;2.00;;;;;33.96;26.23;100975.50;146606;574;46018;-78
2022/07/14 13:31:25;;;;;;;;;2.00;2.00;;;;;33.95;25.97;100975.53;146608;586;46008;-80
2022/07/14 13:34:20;;;;;;;;;2.33;2.33;;;;;33.93;26.87;100961.31;146599;589;47916;-79
2022/07/14 13:37:17;;;;;;;;;4.25;3.25;;;;;33.94;26.23;100969.28;146611;671;45019;-78
2022/07/14 13:40:10;;;;;;;;;2.50;2.50;;;;;33.88;26.05;100953.41;146607;706;46010;-78